Time;durP1;ratioP1;P1;durP2;ratioP2;P2;SDS_P1;SDS_P2;PMS_P1;PMS_P2;Temp;Humidity;BMP_temperature;BMP_pressure;BME280_temperature;BME280_humidity;BME280_pressure;Samples;Min_cycle;Max_cycle;Signal;HPM_P1;HPM_P2
2021/12/05 00:19:12;;;;;;;0.20;0.20;;;;;;;-0.63;100.00;99167.09;4993228;28;20070;-84
2021/12/05 00:21:57;;;;;;;0.20;0.20;;;;;;;-0.60;100.00;99169.28;5000756;28;20054;-85
2021/12/05 00:24:31;;;;;;;0.20;0.20;;;;;;;-0.65;100.00;99172.66;4989218;28;20058;-85
2021/12/05 00:27:15;;;;;;;0.20;0.20;;;;;;;-0.65;100.00;99186.03;4989357;28;20045;-84
2021/12/05 00:29:58;;;;;;;0.20;0.20;;;;;;;-0.66;100.00;99181.75;4986667;28;20062;-85
2021/12/05 00:32:42;;;;;;;0.20;0.20;;;;;;;-0.58;100.00;99192.03;4989306;28;20038;-83
2021/12/05 00:41:39;;;;;;;0.20;0.20;;;;;;;-0.66;100.00;99210.31;4993147;28;20050;-84
2021/12/05 00:47:34;;;;;;;0.20;0.20;;;;;;;-0.55;100.00;99204.13;4937757;29;20070;-83
2021/12/05 00:50:41;;;;;;;0.20;0.20;;;;;;;-0.58;100.00;99204.56;4985210;28;20483;-85
2021/12/05 00:56:08;;;;;;;0.20;0.20;;;;;;;-0.62;100.00;99220.31;4984476;28;20050;-84
2021/12/05 01:04:51;;;;;;;0.20;0.20;;;;;;;-0.62;100.00;99233.66;4946815;28;20058;-85
2021/12/05 01:10:30;;;;;;;0.20;0.20;;;;;;;-0.59;100.00;99235.84;4952452;28;20055;-84
2021/12/05 01:15:58;;;;;;;0.22;0.22;;;;;;;-0.56;100.00;99238.03;4990186;28;20045;-85
2021/12/05 01:18:26;;;;;;;0.20;0.20;;;;;;;-0.52;100.00;99246.38;5000449;28;20419;-85
2021/12/05 01:21:06;;;;;;;0.20;0.20;;;;;;;-0.58;100.00;99248.16;4992796;28;20046;-83
2021/12/05 01:23:44;;;;;;;0.20;0.20;;;;;;;-0.50;100.00;99256.81;4992836;28;20053;-86
2021/12/05 01:26:21;;;;;;;0.20;0.20;;;;;;;-0.57;100.00;99249.75;4985802;28;20045;-86
2021/12/05 01:29:16;;;;;;;0.20;0.20;;;;;;;-0.60;100.00;99254.78;4990924;28;20041;-84
2021/12/05 01:32:02;;;;;;;0.20;0.20;;;;;;;-0.65;100.00;99242.13;4988227;28;20407;-86
2021/12/05 01:34:47;;;;;;;0.22;0.22;;;;;;;-0.74;100.00;99244.41;4994844;28;20046;-85
2021/12/05 01:37:31;;;;;;;0.10;0.10;;;;;;;-0.60;100.00;99263.59;4995289;28;20046;-86
2021/12/05 01:43:26;;;;;;;0.20;0.20;;;;;;;-0.64;100.00;99273.16;4991244;28;20057;-86
2021/12/05 02:00:07;;;;;;;0.20;0.20;;;;;;;-0.63;100.00;99248.06;4994728;28;20050;-85
2021/12/05 02:31:53;;;;;;;0.20;0.20;;;;;;;-0.58;100.00;99261.53;4997897;28;20038;-84
2021/12/05 02:34:39;;;;;;;0.10;0.10;;;;;;;-0.65;100.00;99266.19;4993281;28;20054;-85
2021/12/05 02:37:34;;;;;;;0.30;0.30;;;;;;;-0.70;100.00;99266.13;4994273;28;20057;-85
2021/12/05 02:40:31;;;;;;;0.20;0.20;;;;;;;-0.63;100.00;99269.44;4994347;28;20050;-84
2021/12/05 02:43:08;;;;;;;0.20;0.20;;;;;;;-0.59;100.00;99283.94;4990421;28;20046;-85
2021/12/05 02:45:40;;;;;;;0.20;0.20;;;;;;;-0.65;100.00;99279.53;4991709;28;20053;-86
2021/12/05 02:48:15;;;;;;;0.20;0.20;;;;;;;-0.64;100.00;99286.50;4990485;28;20054;-85
2021/12/05 02:50:48;;;;;;;0.17;0.17;;;;;;;-0.67;100.00;99284.34;4997771;28;20053;-85
2021/12/05 02:53:26;;;;;;;0.20;0.20;;;;;;;-0.81;100.00;99267.00;4994635;28;20054;-84
2021/12/05 02:55:55;;;;;;;0.17;0.17;;;;;;;-0.63;100.00;99296.16;5003782;28;20057;-84
2021/12/05 02:58:38;;;;;;;0.10;0.10;;;;;;;-0.61;100.00;99299.38;4998448;28;20649;-84
2021/12/05 03:01:13;;;;;;;0.20;0.20;;;;;;;-0.62;100.00;99287.09;4994736;28;20046;-84
2021/12/05 03:03:47;;;;;;;0.20;0.20;;;;;;;-0.66;100.00;99301.16;4996417;28;20740;-83
2021/12/05 03:06:21;;;;;;;0.20;0.20;;;;;;;-0.60;100.00;99301.03;5004088;28;20050;-83
2021/12/05 03:08:58;;;;;;;0.20;0.20;;;;;;;-0.62;100.00;99297.78;5000792;28;20054;-84
2021/12/05 03:11:31;;;;;;;0.28;0.28;;;;;;;-0.63;100.00;99296.16;5008616;28;20046;-84
2021/12/05 03:14:07;;;;;;;0.20;0.20;;;;;;;-0.65;100.00;99300.91;5000459;28;20046;-84
2021/12/05 03:16:41;;;;;;;0.20;0.20;;;;;;;-0.67;100.00;99297.69;5000795;28;20057;-83
2021/12/05 03:19:17;;;;;;;0.20;0.20;;;;;;;-0.67;100.00;99299.56;5013091;28;20512;-83
2021/12/05 03:21:53;;;;;;;0.20;0.20;;;;;;;-0.72;100.00;99284.22;4996799;28;20061;-84
2021/12/05 03:24:29;;;;;;;0.20;0.20;;;;;;;-0.59;100.00;99305.31;4994838;28;20046;-83
2021/12/05 03:26:58;;;;;;;0.20;0.20;;;;;;;-0.64;100.00;99313.22;5000823;28;20046;-84
2021/12/05 03:29:32;;;;;;;0.20;0.20;;;;;;;-0.63;100.00;99316.75;4989165;28;20054;-83
2021/12/05 03:32:00;;;;;;;0.20;0.20;;;;;;;-0.65;100.00;99311.59;4993621;28;20050;-83
2021/12/05 03:34:34;;;;;;;0.20;0.20;;;;;;;-0.65;100.00;99322.28;5004561;28;20042;-84
2021/12/05 03:37:08;;;;;;;0.20;0.20;;;;;;;-0.71;100.00;99323.25;4999517;28;20046;-82
2021/12/05 03:39:43;;;;;;;0.20;0.20;;;;;;;-0.66;100.00;99310.00;4993708;28;20054;-83
2021/12/05 03:42:17;;;;;;;0.20;0.20;;;;;;;-0.61;100.00;99312.75;4998320;28;20046;-83
2021/12/05 03:44:50;;;;;;;0.20;0.20;;;;;;;-0.61;100.00;99317.28;4989833;28;20047;-84
2021/12/05 03:47:27;;;;;;;0.20;0.20;;;;;;;-0.64;100.00;99317.78;4995923;28;20039;-82
2021/12/05 03:49:56;;;;;;;0.20;0.20;;;;;;;-0.58;100.00;99319.47;5004678;28;20046;-82
2021/12/05 03:52:26;;;;;;;0.20;0.20;;;;;;;-0.61;100.00;99320.75;4996194;28;20415;-82
2021/12/05 03:54:55;;;;;;;0.30;0.30;;;;;;;-0.66;100.00;99326.03;5001579;28;20486;-84
2021/12/05 03:57:29;;;;;;;0.20;0.20;;;;;;;-0.83;100.00;99291.25;4998858;28;20058;-83
2021/12/05 04:00:06;;;;;;;0.20;0.20;;;;;;;-0.64;100.00;99333.81;4997341;28;20054;-83
2021/12/05 04:02:47;;;;;;;0.20;0.20;;;;;;;-0.79;100.00;99311.09;4997566;28;20622;-83
2021/12/05 04:05:21;;;;;;;0.20;0.20;;;;;;;-0.56;100.00;99328.88;5007322;28;20050;-82
2021/12/05 04:07:55;;;;;;;0.20;0.20;;;;;;;-0.56;100.00;99338.78;4993993;28;20046;-82
2021/12/05 04:10:31;;;;;;;0.15;0.15;;;;;;;-0.59;100.00;99332.03;5001236;28;20053;-83
2021/12/05 04:13:06;;;;;;;0.20;0.20;;;;;;;-0.64;100.00;99339.97;4998266;28;20043;-82
2021/12/05 04:15:35;;;;;;;0.20;0.20;;;;;;;-0.73;100.00;99344.88;4989812;28;20049;-83
2021/12/05 04:18:08;;;;;;;0.20;0.20;;;;;;;-0.73;100.00;99346.75;4995822;28;20050;-83
2021/12/05 04:20:37;;;;;;;0.20;0.20;;;;;;;-0.71;100.00;99369.47;4999477;28;20053;-83
2021/12/05 04:23:11;;;;;;;0.20;0.20;;;;;;;-0.67;100.00;99375.16;4999849;28;20049;-82
2021/12/05 04:25:48;;;;;;;0.20;0.20;;;;;;;-0.70;100.00;99376.44;4999808;28;20046;-82
2021/12/05 04:28:24;;;;;;;0.10;0.10;;;;;;;-0.63;100.00;99379.00;4999855;28;20458;-83
2021/12/05 04:30:58;;;;;;;0.20;0.20;;;;;;;-0.53;100.00;99379.16;4988674;28;20495;-83
2021/12/05 04:33:31;;;;;;;0.20;0.20;;;;;;;-0.57;100.00;99385.25;4992798;28;20411;-84
2021/12/05 04:36:00;;;;;;;0.20;0.20;;;;;;;-0.62;100.00;99388.63;4997532;28;20049;-83
2021/12/05 04:38:34;;;;;;;0.20;0.20;;;;;;;-0.64;100.00;99384.56;5000036;28;20038;-83
2021/12/05 04:41:09;;;;;;;0.20;0.20;;;;;;;-0.55;100.00;99391.19;4995961;28;20053;-84
2021/12/05 04:43:42;;;;;;;0.30;0.30;;;;;;;-0.60;100.00;99391.06;4992447;28;20502;-83
2021/12/05 04:46:15;;;;;;;0.20;0.20;;;;;;;-0.50;100.00;99395.78;4992198;28;20042;-83
2021/12/05 04:48:47;;;;;;;0.20;0.20;;;;;;;-0.62;100.00;99399.31;4998131;28;20053;-84
2021/12/05 04:51:24;;;;;;;0.20;0.20;;;;;;;-0.62;100.00;99403.84;4993021;28;20046;-84
2021/12/05 04:53:54;;;;;;;0.20;0.20;;;;;;;-0.65;100.00;99410.47;5003454;28;20046;-85
2021/12/05 04:56:30;;;;;;;0.20;0.20;;;;;;;-0.63;100.00;99412.94;4999022;28;20046;-84
2021/12/05 04:59:00;;;;;;;0.20;0.20;;;;;;;-0.64;100.00;99413.97;5008022;28;20047;-85
2021/12/05 05:01:32;;;;;;;0.20;0.20;;;;;;;-0.63;100.00;99411.06;4994426;28;20051;-82
2021/12/05 05:04:04;;;;;;;0.20;0.20;;;;;;;-0.62;100.00;99415.34;4996469;28;20050;-85
2021/12/05 05:06:37;;;;;;;0.20;0.20;;;;;;;-0.68;100.00;99416.28;4990994;28;20050;-83
2021/12/05 05:09:10;;;;;;;0.20;0.20;;;;;;;-0.72;100.00;99423.16;4989306;28;20050;-85
2021/12/05 05:11:45;;;;;;;0.20;0.20;;;;;;;-0.69;100.00;99436.06;4992932;28;20046;-84
2021/12/05 05:14:18;;;;;;;0.20;0.20;;;;;;;-0.62;100.00;99428.72;4990348;28;20058;-85
2021/12/05 05:16:54;;;;;;;0.20;0.20;;;;;;;-0.66;100.00;99434.75;4986820;28;20053;-85
2021/12/05 05:19:31;;;;;;;0.20;0.20;;;;;;;-0.73;100.00;99432.25;5001941;28;20049;-86
2021/12/05 05:22:09;;;;;;;;;;;;;;;-0.68;100.00;99453.69;4992360;28;20042;-86
2021/12/05 05:45:01;;;;;;;0.20;0.20;;;;;;;-0.66;100.00;99477.50;4983637;28;20065;-83
2021/12/05 05:47:38;;;;;;;0.20;0.20;;;;;;;-0.57;100.00;99481.44;4996962;28;20058;-86
2021/12/05 05:50:11;;;;;;;;;;;;;;;-0.64;100.00;99486.91;4994867;28;20046;-85
2021/12/05 05:52:45;;;;;;;0.20;0.20;;;;;;;-0.71;100.00;99497.72;4993565;28;19921;-87
2021/12/05 05:55:13;;;;;;;0.30;0.30;;;;;;;-0.80;100.00;99475.09;5001913;28;20529;-86
2021/12/05 05:57:57;;;;;;;0.20;0.20;;;;;;;-0.74;100.00;99481.38;5009327;28;20403;-86
2021/12/05 06:00:39;;;;;;;0.20;0.20;;;;;;;-0.80;100.00;99472.44;4991458;28;20058;-86
2021/12/05 06:03:22;;;;;;;0.20;0.20;;;;;;;-0.90;100.00;99459.69;4999096;28;20403;-86
2021/12/05 06:05:51;;;;;;;;;;;;;;;-0.65;100.00;99495.97;4992120;28;20046;-86
2021/12/05 06:08:27;;;;;;;0.20;0.20;;;;;;;-0.59;100.00;99494.25;4998085;28;19926;-87
2021/12/05 06:11:03;;;;;;;0.20;0.20;;;;;;;-0.57;100.00;99500.16;5000762;28;20042;-85
2021/12/05 06:13:33;;;;;;;0.20;0.20;;;;;;;-0.66;100.00;99494.38;5003043;28;20510;-86
2021/12/05 06:16:08;;;;;;;0.20;0.20;;;;;;;-0.66;100.00;99499.72;4996714;28;20057;-86
2021/12/05 06:18:43;;;;;;;0.20;0.20;;;;;;;-0.60;100.00;99496.09;4994577;28;20045;-86
2021/12/05 06:21:16;;;;;;;0.20;0.20;;;;;;;-0.58;100.00;99499.34;4998579;28;20049;-86
2021/12/05 06:23:50;;;;;;;0.30;0.30;;;;;;;-0.62;100.00;99492.84;4998554;28;20043;-86
2021/12/05 06:26:23;;;;;;;0.20;0.20;;;;;;;-0.56;100.00;99501.78;5002094;28;20050;-86
2021/12/05 06:29:05;;;;;;;0.20;0.20;;;;;;;-0.66;100.00;99493.53;4996665;28;20061;-86
2021/12/05 06:31:58;;;;;;;0.30;0.30;;;;;;;-0.55;100.00;99498.88;4992115;28;20054;-86
2021/12/05 06:37:45;;;;;;;0.22;0.22;;;;;;;-0.65;100.00;99513.88;4992842;28;20681;-85
2021/12/05 06:40:33;;;;;;;0.30;0.30;;;;;;;-0.62;100.00;99516.06;4990748;28;20054;-86
2021/12/05 06:45:56;;;;;;;0.20;0.20;;;;;;;-0.73;100.00;99507.03;4998170;28;20057;-85
2021/12/05 06:46:04;;;;;;;0.22;0.22;;;;;;;-0.63;100.00;99533.97;5010673;28;20046;-86
2021/12/05 06:48:34;;;;;;;0.20;0.20;;;;;;;-0.69;100.00;99532.25;5000320;28;20053;-85
2021/12/05 06:51:07;;;;;;;0.20;0.20;;;;;;;-0.72;100.00;99548.72;4998876;28;20035;-85
2021/12/05 06:53:36;;;;;;;0.20;0.20;;;;;;;-0.67;100.00;99564.88;4995930;28;20419;-86
2021/12/05 06:56:09;;;;;;;0.30;0.30;;;;;;;-0.68;100.00;99568.59;5002556;28;20518;-86
2021/12/05 06:58:38;;;;;;;0.20;0.20;;;;;;;-0.70;100.00;99574.16;4998739;28;20046;-85
2021/12/05 07:01:13;;;;;;;0.20;0.20;;;;;;;-0.65;100.00;99575.31;4991179;28;20050;-85
2021/12/05 07:03:49;;;;;;;0.20;0.20;;;;;;;-0.59;100.00;99575.22;4995177;28;20430;-87
2021/12/05 07:06:27;;;;;;;0.20;0.20;;;;;;;-0.59;100.00;99579.75;4996685;28;20170;-85
2021/12/05 07:09:05;;;;;;;0.30;0.30;;;;;;;-0.62;100.00;99578.34;4996004;28;20046;-86
2021/12/05 07:11:47;;;;;;;0.28;0.28;;;;;;;-0.63;100.00;99589.28;4992517;28;20047;-85
2021/12/05 07:14:34;;;;;;;0.20;0.20;;;;;;;-0.58;100.00;99586.69;5015934;28;20502;-86
2021/12/05 07:17:08;;;;;;;;;;;;;;;-0.63;100.00;99594.63;5006940;28;20498;-85
2021/12/05 07:19:56;;;;;;;0.20;0.20;;;;;;;-0.56;100.00;99598.00;4991572;28;19922;-86
2021/12/05 07:22:37;;;;;;;0.30;0.30;;;;;;;-0.63;100.00;99595.44;4995231;28;20431;-85
2021/12/05 07:25:14;;;;;;;0.20;0.20;;;;;;;-0.56;100.00;99598.78;5003100;28;20050;-87
2021/12/05 07:42:16;;;;;;;0.20;0.20;;;;;;;-0.55;100.00;99629.03;5003203;28;20057;-85
2021/12/05 07:44:49;;;;;;;0.17;0.17;;;;;;;-0.44;100.00;99630.03;4987972;28;20058;-86
2021/12/05 07:47:29;;;;;;;0.20;0.20;;;;;;;-0.59;100.00;99625.19;4984910;28;20503;-88
2021/12/05 07:50:07;;;;;;;0.20;0.20;;;;;;;-0.54;100.00;99652.84;4992977;28;20050;-86
2021/12/05 07:52:47;;;;;;;0.20;0.20;;;;;;;-0.49;100.00;99654.81;4995396;28;20054;-84
2021/12/05 07:55:25;;;;;;;0.20;0.20;;;;;;;-0.50;100.00;99655.03;4992631;28;20051;-86
2021/12/05 07:58:10;;;;;;;0.20;0.20;;;;;;;-0.48;100.00;99650.25;4993048;28;20055;-86
2021/12/05 08:00:49;;;;;;;0.20;0.20;;;;;;;-0.56;100.00;99640.75;4983320;28;20069;-85
2021/12/05 08:15:09;;;;;;;0.20;0.20;;;;;;;-0.50;100.00;99674.56;4996240;28;20047;-85
2021/12/05 08:17:38;;;;;;;0.30;0.30;;;;;;;-0.39;100.00;99691.66;4980063;28;20046;-86
2021/12/05 08:20:10;;;;;;;0.20;0.20;;;;;;;-0.43;100.00;99685.13;4981906;28;20117;-86
2021/12/05 08:22:38;;;;;;;0.20;0.20;;;;;;;-0.49;100.00;99689.56;4984218;28;20042;-87
2021/12/05 08:25:11;;;;;;;0.20;0.20;;;;;;;-0.39;100.00;99700.50;4992690;28;20065;-85
2021/12/05 08:27:46;;;;;;;0.20;0.20;;;;;;;-0.50;100.00;99692.47;4995660;28;20425;-86
2021/12/05 08:30:28;;;;;;;0.20;0.20;;;;;;;-0.37;100.00;99716.31;4991328;28;20046;-87
2021/12/05 08:33:30;;;;;;;0.20;0.20;;;;;;;-0.35;100.00;99711.53;4990948;28;20053;-86
2021/12/05 08:36:31;;;;;;;0.20;0.20;;;;;;;-0.34;100.00;99713.16;4993698;28;20061;-87
2021/12/05 09:24:45;;;;;;;0.22;0.22;;;;;;;-0.42;100.00;99802.53;4989831;28;20057;-85
2021/12/05 09:27:55;;;;;;;0.20;0.20;;;;;;;-0.39;100.00;99810.09;4992556;28;20435;-85
2021/12/05 09:30:39;;;;;;;0.20;0.20;;;;;;;-0.29;100.00;99809.53;4992574;28;20061;-85
2021/12/05 09:39:25;;;;;;;0.20;0.20;;;;;;;-0.28;100.00;99792.44;4986411;28;20047;-83
2021/12/05 10:01:27;;;;;;;0.20;0.20;;;;;;;-0.37;100.00;99809.88;4935654;29;20047;-83
2021/12/05 10:08:09;;;;;;;0.20;0.20;;;;;;;-0.19;100.00;99835.72;4988385;28;20046;-83
2021/12/05 10:10:54;;;;;;;0.20;0.20;;;;;;;-0.13;100.00;99852.69;4989170;28;20065;-84
2021/12/05 10:13:30;;;;;;;0.20;0.20;;;;;;;-0.14;100.00;99856.41;4986000;28;20053;-85
2021/12/05 10:16:14;;;;;;;0.20;0.20;;;;;;;-0.21;100.00;99856.50;4991897;28;20543;-83
2021/12/05 10:19:26;;;;;;;0.20;0.20;;;;;;;-0.11;100.00;99862.13;4985901;28;20426;-84
2021/12/05 10:36:19;;;;;;;0.20;0.20;;;;;;;-0.10;100.00;99873.63;4987133;28;20062;-84
2021/12/05 10:38:59;;;;;;;0.20;0.20;;;;;;;-0.35;100.00;99853.22;4991086;28;20058;-87
2021/12/05 10:41:59;;;;;;;0.20;0.20;;;;;;;-0.02;100.00;99881.31;4988997;28;20066;-85
2021/12/05 10:44:44;;;;;;;0.20;0.20;;;;;;;-0.12;100.00;99884.56;5006266;28;20061;-85
2021/12/05 10:47:13;;;;;;;0.20;0.20;;;;;;;-0.22;100.00;99860.22;4989226;28;20755;-85
2021/12/05 10:49:46;;;;;;;0.20;0.20;;;;;;;-0.22;100.00;99850.34;4988815;28;20077;-83
2021/12/05 10:52:16;;;;;;;0.20;0.20;;;;;;;0.03;100.00;99878.78;4988537;28;20486;-83
2021/12/05 10:54:55;;;;;;;0.20;0.20;;;;;;;0.03;100.00;99885.97;4992212;28;20058;-84
2021/12/05 10:57:30;;;;;;;0.10;0.10;;;;;;;0.04;100.00;99875.03;4993177;28;20065;-83
2021/12/05 11:00:12;;;;;;;0.20;0.20;;;;;;;0.14;100.00;99888.69;4996948;28;20065;-85
2021/12/05 11:02:45;;;;;;;0.20;0.20;;;;;;;0.14;100.00;99894.03;4992109;28;20050;-85
2021/12/05 11:05:42;;;;;;;0.20;0.20;;;;;;;0.06;100.00;99869.50;4993420;28;20058;-83
2021/12/05 11:08:31;;;;;;;;;;;;;;;0.11;100.00;99896.34;4990196;28;21269;-82
2021/12/05 11:11:10;;;;;;;0.20;0.20;;;;;;;0.16;100.00;99901.84;4990151;28;19926;-82
2021/12/05 11:13:43;;;;;;;0.20;0.20;;;;;;;0.13;100.00;99880.91;4993544;28;20056;-82
2021/12/05 11:16:35;;;;;;;0.20;0.20;;;;;;;0.24;100.00;99914.06;4997695;28;20081;-84
2021/12/05 11:19:10;;;;;;;0.22;0.22;;;;;;;0.20;100.00;99907.56;4992212;28;20060;-81
2021/12/05 11:21:48;;;;;;;0.20;0.20;;;;;;;0.11;100.00;99918.59;4991414;28;20069;-84
2021/12/05 11:24:25;;;;;;;0.15;0.15;;;;;;;0.16;100.00;99925.91;4993966;28;20050;-81
2021/12/05 11:27:19;;;;;;;0.20;0.20;;;;;;;0.25;100.00;99932.56;4995322;28;20045;-84
2021/12/05 11:30:09;;;;;;;0.20;0.20;;;;;;;0.27;100.00;99938.50;4992633;28;20061;-82
2021/12/05 11:32:41;;;;;;;0.13;0.13;;;;;;;0.34;100.00;99939.19;4992344;28;20049;-85
2021/12/05 11:35:29;;;;;;;0.20;0.20;;;;;;;0.23;100.00;99939.19;4991938;28;20063;-85
2021/12/05 11:38:14;;;;;;;0.20;0.20;;;;;;;0.25;100.00;99931.75;4992614;28;20053;-82
2021/12/05 11:40:49;;;;;;;0.20;0.20;;;;;;;0.29;100.00;99938.25;4993073;28;20058;-83
2021/12/05 11:43:25;;;;;;;0.20;0.20;;;;;;;0.28;100.00;99933.97;4994713;28;20057;-82
2021/12/05 11:46:04;;;;;;;0.20;0.20;;;;;;;0.33;100.00;99936.75;4991914;28;20049;-83
2021/12/05 11:48:41;;;;;;;0.20;0.20;;;;;;;0.35;100.00;99940.03;4995400;28;20788;-84
2021/12/05 11:51:34;;;;;;;0.20;0.20;;;;;;;0.36;100.00;99939.00;4991798;28;20061;-82
2021/12/05 11:54:11;;;;;;;0.20;0.20;;;;;;;0.42;100.00;99940.75;4991417;28;20057;-83
2021/12/05 11:56:49;;;;;;;0.20;0.20;;;;;;;0.31;100.00;99939.66;4990883;28;20920;-81
2021/12/05 11:59:21;;;;;;;0.20;0.20;;;;;;;0.33;100.00;99942.09;4994203;28;20054;-86
2021/12/05 12:02:01;;;;;;;0.20;0.20;;;;;;;0.34;100.00;99946.44;4989868;28;20090;-81
2021/12/05 12:04:43;;;;;;;0.20;0.20;;;;;;;0.37;100.00;99947.84;4988449;28;20054;-82
2021/12/05 12:07:21;;;;;;;0.20;0.20;;;;;;;0.44;100.00;99945.84;4993093;28;20647;-85
2021/12/05 12:09:58;;;;;;;0.20;0.20;;;;;;;0.34;100.00;99941.06;4991402;28;20062;-84
2021/12/05 12:12:31;;;;;;;0.20;0.20;;;;;;;0.38;100.00;99942.25;4977263;28;20058;-82
2021/12/05 12:15:07;;;;;;;0.20;0.20;;;;;;;0.42;100.00;99954.13;4983100;28;20514;-83
2021/12/05 12:17:38;;;;;;;0.30;0.30;;;;;;;0.40;100.00;99952.72;4986039;28;20058;-81
2021/12/05 12:20:16;;;;;;;0.20;0.20;;;;;;;0.29;100.00;99949.81;4984393;28;20043;-82
2021/12/05 12:22:50;;;;;;;0.10;0.10;;;;;;;0.33;100.00;99955.50;4981563;28;20054;-85
2021/12/05 12:25:27;;;;;;;0.30;0.30;;;;;;;0.36;100.00;99960.41;5017355;28;20885;-82
2021/12/05 12:27:56;;;;;;;0.20;0.20;;;;;;;0.22;100.00;99932.19;4982242;28;20054;-83
2021/12/05 12:30:32;;;;;;;0.20;0.20;;;;;;;0.42;100.00;99956.00;4983139;28;20054;-82
2021/12/05 12:33:08;;;;;;;0.15;0.15;;;;;;;0.47;100.00;99964.13;4981911;28;20061;-84
2021/12/05 12:35:45;;;;;;;0.20;0.20;;;;;;;0.33;100.00;99969.72;4984096;28;20081;-81
2021/12/05 12:38:21;;;;;;;0.30;0.30;;;;;;;0.35;100.00;99972.16;4984206;28;20066;-82
2021/12/05 12:40:53;;;;;;;0.30;0.30;;;;;;;0.31;100.00;99968.31;5015505;28;20419;-82
2021/12/05 12:43:43;;;;;;;0.28;0.28;;;;;;;0.16;100.00;99963.38;4980648;28;20062;-82
2021/12/05 12:46:29;;;;;;;0.20;0.20;;;;;;;0.27;100.00;99965.25;4980287;28;20062;-84
2021/12/05 12:49:21;;;;;;;0.30;0.30;;;;;;;0.30;100.00;99975.53;4979936;28;20058;-83
2021/12/05 12:51:52;;;;;;;0.20;0.20;;;;;;;0.24;100.00;99971.06;4983091;28;20054;-82
2021/12/05 12:54:27;;;;;;;0.20;0.20;;;;;;;0.16;100.00;99964.19;4983557;28;20053;-83
2021/12/05 12:57:06;;;;;;;0.20;0.20;;;;;;;0.37;100.00;99972.72;4984627;28;20054;-82
2021/12/05 12:59:44;;;;;;;0.20;0.20;;;;;;;0.31;100.00;99973.66;4985336;28;20069;-80
2021/12/05 13:02:29;;;;;;;0.30;0.30;;;;;;;0.22;100.00;99953.63;4982732;28;20065;-84
2021/12/05 13:05:22;;;;;;;0.30;0.30;;;;;;;0.26;100.00;99974.34;4979383;28;20058;-83
2021/12/05 13:11:00;;;;;;;0.20;0.20;;;;;;;0.40;100.00;99971.47;4996321;28;20055;-82
2021/12/05 13:13:36;;;;;;;0.20;0.20;;;;;;;0.33;100.00;99980.41;4953017;28;20061;-82
2021/12/05 13:16:13;;;;;;;0.22;0.22;;;;;;;0.32;100.00;99981.44;4981925;28;20050;-82
2021/12/05 13:18:45;;;;;;;0.25;0.25;;;;;;;0.27;100.00;99988.53;4980882;28;20613;-81
2021/12/05 13:21:26;;;;;;;0.20;0.20;;;;;;;0.21;100.00;99968.03;4980996;28;20240;-83
2021/12/05 13:23:59;;;;;;;0.20;0.20;;;;;;;0.30;100.00;99988.06;4979966;28;20545;-81
2021/12/05 13:26:39;;;;;;;0.20;0.20;;;;;;;0.16;100.00;99979.44;4981353;28;20069;-82
2021/12/05 13:29:16;;;;;;;0.20;0.20;;;;;;;0.28;100.00;99995.53;4980056;28;20411;-82
2021/12/05 13:32:04;;;;;;;0.20;0.20;;;;;;;0.36;100.00;99997.03;4982708;28;21047;-82
2021/12/05 13:34:47;;;;;;;0.20;0.20;;;;;;;0.30;100.00;99996.09;4980504;28;20038;-82
2021/12/05 13:37:35;;;;;;;0.30;0.30;;;;;;;0.14;100.00;100000.25;5013269;28;20062;-83
2021/12/05 13:40:16;;;;;;;0.20;0.20;;;;;;;-0.12;100.00;99978.16;4985346;28;20128;-83
2021/12/05 13:42:48;;;;;;;0.20;0.20;;;;;;;-0.05;100.00;100005.63;4980737;28;20058;-85
2021/12/05 13:45:24;;;;;;;0.30;0.30;;;;;;;-0.28;100.00;100018.91;4981218;28;20074;-82
2021/12/05 13:48:15;;;;;;;0.28;0.28;;;;;;;-0.27;100.00;100023.22;4981909;28;20045;-84
2021/12/05 13:50:53;;;;;;;0.20;0.20;;;;;;;-0.42;100.00;100015.56;4979930;28;20062;-84
2021/12/05 13:53:38;;;;;;;0.20;0.20;;;;;;;-0.32;100.00;100039.91;5013618;28;20062;-84
2021/12/05 13:56:16;;;;;;;0.15;0.15;;;;;;;-0.32;100.00;100039.91;4980565;28;20055;-83
2021/12/05 13:58:48;;;;;;;0.20;0.20;;;;;;;-0.36;100.00;100041.41;4978634;28;21271;-86
2021/12/05 14:01:20;;;;;;;0.30;0.30;;;;;;;-0.57;100.00;100022.09;4979171;28;20065;-82
2021/12/05 14:04:00;;;;;;;0.28;0.28;;;;;;;-0.43;100.00;100043.34;4980531;28;20059;-84
2021/12/05 14:06:43;;;;;;;0.13;0.13;;;;;;;-0.39;100.00;100044.53;4981962;28;20065;-83
2021/12/05 14:09:23;;;;;;;0.20;0.20;;;;;;;-0.51;100.00;100036.44;4983808;28;20065;-84
2021/12/05 14:12:04;;;;;;;0.20;0.20;;;;;;;-0.82;100.00;100018.69;4982541;28;20878;-83
2021/12/05 14:14:40;;;;;;;0.20;0.20;;;;;;;-0.50;100.00;100066.66;4952953;28;20059;-82
2021/12/05 14:17:11;;;;;;;0.20;0.20;;;;;;;-0.53;100.00;100058.03;4978730;28;20050;-83
2021/12/05 14:19:48;;;;;;;0.20;0.20;;;;;;;-0.55;100.00;100064.66;4977683;28;20058;-84
2021/12/05 14:22:24;;;;;;;0.30;0.30;;;;;;;-0.55;100.00;100062.78;4979059;28;20050;-84
2021/12/05 14:25:04;;;;;;;0.20;0.20;;;;;;;-0.65;100.00;100049.09;4984670;28;20039;-83
2021/12/05 14:27:37;;;;;;;0.20;0.20;;;;;;;-0.52;100.00;100066.88;4981828;28;20061;-82
2021/12/05 14:30:10;;;;;;;0.20;0.20;;;;;;;-0.57;100.00;100075.53;4987910;28;20046;-80
2021/12/05 14:32:42;;;;;;;0.20;0.20;;;;;;;-0.78;100.00;100046.59;4985109;28;20050;-83
2021/12/05 14:35:14;;;;;;;0.20;0.20;;;;;;;-0.55;100.00;100086.84;4979419;28;20046;-82
2021/12/05 14:37:45;;;;;;;0.20;0.20;;;;;;;-0.48;100.00;100091.28;4983424;28;20050;-82
2021/12/05 14:40:21;;;;;;;0.20;0.20;;;;;;;-0.57;100.00;100099.59;4982478;28;20071;-82
2021/12/05 14:42:54;;;;;;;0.15;0.15;;;;;;;-0.85;100.00;100057.34;4987017;28;20054;-81
2021/12/05 14:45:29;;;;;;;0.20;0.20;;;;;;;-0.58;100.00;100107.84;4981340;28;21167;-83
2021/12/05 14:48:07;;;;;;;0.20;0.20;;;;;;;-0.71;100.00;100090.09;4985043;28;20065;-83
2021/12/05 14:50:43;;;;;;;0.20;0.20;;;;;;;-0.79;100.00;100101.06;4985690;28;20065;-83
2021/12/05 14:53:17;;;;;;;0.30;0.30;;;;;;;-0.61;100.00;100118.97;4982536;28;20050;-83
2021/12/05 14:55:56;;;;;;;0.20;0.20;;;;;;;-0.87;100.00;100097.63;4982520;28;20069;-84
2021/12/05 14:58:27;;;;;;;0.20;0.20;;;;;;;-0.76;100.00;100103.28;4984093;28;20058;-82
2021/12/05 15:00:58;;;;;;;0.20;0.20;;;;;;;-0.63;100.00;100119.19;4982796;28;20069;-82
2021/12/05 15:03:33;;;;;;;0.20;0.20;;;;;;;-0.57;100.00;100139.69;4984311;28;20050;-83
2021/12/05 15:06:05;;;;;;;0.20;0.20;;;;;;;-0.58;100.00;100137.25;4983486;28;20101;-83
2021/12/05 15:08:35;;;;;;;0.20;0.20;;;;;;;-0.65;100.00;100142.63;4981703;28;20065;-84
2021/12/05 15:11:08;;;;;;;0.20;0.20;;;;;;;-0.72;100.00;100136.53;4982348;28;21271;-84
2021/12/05 15:13:41;;;;;;;0.20;0.20;;;;;;;-0.79;100.00;100123.22;4960275;28;20667;-83
2021/12/05 15:16:10;;;;;;;0.20;0.20;;;;;;;-0.62;100.00;100154.75;5015219;28;20073;-83
2021/12/05 15:18:39;;;;;;;0.20;0.20;;;;;;;-0.56;100.00;100165.38;5013136;28;20054;-83
2021/12/05 15:21:07;;;;;;;0.20;0.20;;;;;;;-0.56;100.00;100172.59;4981149;28;20054;-83
2021/12/05 15:23:40;;;;;;;0.20;0.20;;;;;;;-0.49;100.00;100165.34;4987498;28;20046;-82
2021/12/05 15:26:18;;;;;;;0.22;0.22;;;;;;;-0.48;100.00;100161.63;4988699;28;20053;-81
2021/12/05 15:28:49;;;;;;;0.20;0.20;;;;;;;-0.69;100.00;100149.50;4991137;28;20438;-82
2021/12/05 15:31:18;;;;;;;0.20;0.20;;;;;;;-0.42;100.00;100186.66;4996366;28;20050;-81
2021/12/05 15:33:48;;;;;;;0.20;0.20;;;;;;;-0.50;100.00;100184.28;4993556;28;20054;-81
2021/12/05 15:36:16;;;;;;;0.20;0.20;;;;;;;-0.58;100.00;100162.13;4996163;28;20045;-80
2021/12/05 15:38:45;;;;;;;0.20;0.20;;;;;;;-0.48;100.00;100179.50;4999603;28;20065;-81
2021/12/05 15:41:17;;;;;;;0.20;0.20;;;;;;;-0.39;100.00;100196.91;4994518;28;20498;-80
2021/12/05 15:43:46;;;;;;;0.20;0.20;;;;;;;-0.50;100.00;100174.38;4996405;28;20058;-82
2021/12/05 15:46:27;;;;;;;0.22;0.22;;;;;;;-0.57;100.00;100179.78;4993519;28;20368;-80
2021/12/05 15:48:57;;;;;;;0.30;0.30;;;;;;;-0.41;100.00;100199.81;4989839;28;20038;-80
2021/12/05 15:51:25;;;;;;;0.20;0.20;;;;;;;-0.46;100.00;100205.00;4993727;28;20058;-80
2021/12/05 15:53:59;;;;;;;0.20;0.20;;;;;;;-0.68;100.00;100164.47;4995812;28;20042;-81
2021/12/05 15:56:30;;;;;;;0.20;0.20;;;;;;;-0.49;100.00;100208.09;4991427;28;20051;-80
2021/12/05 15:59:07;;;;;;;0.20;0.20;;;;;;;-0.51;100.00;100210.19;4993710;28;20411;-80
2021/12/05 16:01:42;;;;;;;0.25;0.25;;;;;;;-0.56;100.00;100196.66;5017627;28;20053;-81
2021/12/05 16:04:25;;;;;;;0.20;0.20;;;;;;;-0.55;100.00;100225.03;5001501;28;20439;-81